createdAt,value
2019-02-26T00:01:14.423Z,0.92
2019-02-26T00:06:38.256Z,0.86
2019-02-26T00:09:22.614Z,0.86
2019-02-26T00:11:53.169Z,0.83
2019-02-26T00:14:24.870Z,0.80
2019-02-26T00:17:40.538Z,0.76
2019-02-26T00:20:19.553Z,0.70
2019-02-26T00:23:09.125Z,0.64
2019-02-26T00:25:59.190Z,0.60
2019-02-26T00:31:28.166Z,0.54
2019-02-26T00:34:05.829Z,0.51
2019-02-26T00:36:41.971Z,0.58
2019-02-26T00:39:12.590Z,0.56
2019-02-26T00:48:01.052Z,0.41
2019-02-26T00:50:37.923Z,0.38
2019-02-26T00:56:18.106Z,0.35
2019-02-26T00:59:09.320Z,0.30
2019-02-26T01:01:57.688Z,0.24
2019-02-26T01:08:03.571Z,0.05
2019-02-26T01:10:34.581Z,0.08
2019-02-26T01:13:15.919Z,0.08
2019-02-26T01:16:05.531Z,0.08
2019-02-26T01:19:08.524Z,0.08
2019-02-26T01:21:38.833Z,0.09
2019-02-26T01:24:23.528Z,0.08
2019-02-26T01:26:53.878Z,0.04
2019-02-26T01:29:25.876Z,0.07
2019-02-26T01:32:02.484Z,0.13
2019-02-26T01:34:34.970Z,0.13
2019-02-26T01:39:59.026Z,0.12
2019-02-26T01:42:31.592Z,0.15
2019-02-26T01:45:08.245Z,0.14
2019-02-26T01:47:58.759Z,0.11
2019-02-26T01:50:30.867Z,0.10
2019-02-26T01:53:21.542Z,0.10
2019-02-26T01:56:04.717Z,0.08
2019-02-26T02:01:42.009Z,0.03
2019-02-26T02:04:17.175Z,0.05
2019-02-26T02:09:46.536Z,0.03
2019-02-26T02:12:36.869Z,-0.03
2019-02-26T02:15:14.937Z,-0.04
2019-02-26T02:17:50.338Z,0.02
2019-02-26T02:20:22.203Z,0.07
2019-02-26T02:22:52.808Z,0.11
2019-02-26T02:25:43.331Z,0.18
2019-02-26T02:28:43.139Z,0.21
2019-02-26T02:31:34.821Z,0.20
2019-02-26T02:34:10.743Z,0.24
2019-02-26T02:36:41.334Z,0.35
2019-02-26T02:39:42.880Z,0.35
2019-02-26T02:42:16.403Z,0.37
2019-02-26T02:45:24.694Z,0.34
2019-02-26T02:48:00.323Z,0.38
2019-02-26T02:50:48.005Z,0.44
2019-02-26T02:53:32.339Z,0.50
2019-02-26T02:56:15.352Z,0.51
2019-02-26T02:58:48.814Z,0.54
2019-02-26T03:01:25.827Z,0.49
2019-02-26T03:04:19.661Z,0.47
2019-02-26T03:09:49.554Z,0.49
2019-02-26T03:12:31.750Z,0.45
2019-02-26T03:15:07.457Z,0.44
2019-02-26T03:17:56.205Z,0.46
2019-02-26T03:20:40.306Z,0.46
2019-02-26T03:23:15.772Z,0.45
2019-02-26T03:25:52.955Z,0.45
2019-02-26T03:31:14.733Z,0.43
2019-02-26T03:36:40.826Z,0.32
2019-02-26T03:39:30.728Z,0.32
2019-02-26T03:42:01.330Z,0.31
2019-02-26T03:45:10.088Z,0.30
2019-02-26T03:47:41.033Z,0.28
2019-02-26T03:50:13.720Z,0.30
2019-02-26T03:53:03.624Z,0.25
2019-02-26T03:55:36.221Z,0.22
2019-02-26T03:58:25.509Z,0.23
2019-02-26T04:01:08.443Z,0.19
2019-02-26T04:06:49.296Z,0.17
2019-02-26T04:09:21.964Z,0.15
2019-02-26T04:11:57.755Z,0.19
2019-02-26T04:14:55.551Z,0.20
2019-02-26T04:17:28.610Z,0.21
2019-02-26T04:23:21.898Z,0.13
2019-02-26T04:26:49.723Z,0.12
2019-02-26T04:30:08.303Z,0.05
2019-02-26T04:33:14.051Z,0.01
2019-02-26T04:36:11.150Z,0.01
2019-02-26T04:39:25.322Z,0.05
2019-02-26T04:42:03.309Z,0.09
2019-02-26T04:45:18.586Z,0.15
2019-02-26T04:47:51.855Z,0.12
2019-02-26T04:50:41.485Z,0.13
2019-02-26T04:53:31.384Z,0.13
2019-02-26T04:55:57.499Z,0.14
2019-02-26T04:58:34.430Z,0.14
2019-02-26T05:01:12.959Z,0.12
2019-02-26T05:03:49.290Z,0.02
2019-02-26T05:06:21.489Z,-0.07
2019-02-26T05:09:08.086Z,-0.05
2019-02-26T05:11:40.690Z,-0.01
2019-02-26T05:14:20.977Z,-0.05
2019-02-26T05:16:58.743Z,-0.07
2019-02-26T05:22:35.031Z,-0.10
2019-02-26T05:25:07.336Z,-0.11
2019-02-26T05:28:03.792Z,-0.07
2019-02-26T05:30:41.209Z,-0.04
2019-02-26T05:33:22.601Z,0.02
2019-02-26T05:35:58.667Z,0.05
2019-02-26T05:45:54.206Z,-0.08
2019-02-26T05:55:08.407Z,0.00
2019-02-26T05:57:53.134Z,0.02
2019-02-26T06:03:39.042Z,0.04
2019-02-26T06:06:32.021Z,0.07
2019-02-26T06:08:59.987Z,0.03
2019-02-26T06:11:49.381Z,0.07
2019-02-26T06:14:16.009Z,0.05
2019-02-26T06:16:58.824Z,0.06
2019-02-26T06:19:42.338Z,0.07
2019-02-26T06:22:17.050Z,0.09
2019-02-26T06:25:09.563Z,0.12
2019-02-26T06:27:46.923Z,0.12
2019-02-26T06:30:38.730Z,0.11
2019-02-26T06:36:12.587Z,0.03
2019-02-26T06:39:13.952Z,0.04
2019-02-26T06:41:46.758Z,-0.01
2019-02-26T06:50:28.459Z,0.02
2019-02-26T06:53:13.177Z,-0.04
2019-02-26T06:55:43.473Z,-0.03
2019-02-26T06:58:45.015Z,-0.03
2019-02-26T07:01:27.522Z,-0.06
2019-02-26T07:03:58.201Z,-0.08
2019-02-26T07:06:40.401Z,-0.07
2019-02-26T07:09:22.589Z,-0.06
2019-02-26T07:14:34.714Z,0.00
2019-02-26T07:17:31.604Z,0.00
2019-02-26T07:20:05.244Z,-0.01
2019-02-26T07:22:35.852Z,0.09
2019-02-26T07:25:21.980Z,0.08
2019-02-26T07:28:27.968Z,0.10
2019-02-26T07:37:16.943Z,0.31
2019-02-26T07:40:05.746Z,0.40
2019-02-26T07:42:46.707Z,0.43
2019-02-26T07:45:27.323Z,0.51
2019-02-26T07:47:59.092Z,0.59
2019-02-26T07:51:09.202Z,0.67
2019-02-26T07:53:49.307Z,0.77
2019-02-26T07:56:40.674Z,0.84
2019-02-26T07:59:27.629Z,0.93
2019-02-26T08:05:02.751Z,1.11
2019-02-26T08:07:55.786Z,1.22
2019-02-26T08:10:30.102Z,1.38
2019-02-26T08:13:11.484Z,1.51
2019-02-26T08:18:37.434Z,1.67
2019-02-26T08:21:08.354Z,1.86
2019-02-26T08:24:03.854Z,1.91
2019-02-26T08:26:35.098Z,1.91
2019-02-26T08:29:45.202Z,1.88
2019-02-26T08:32:18.341Z,1.86
2019-02-26T08:35:07.525Z,1.86
2019-02-26T08:37:50.034Z,1.88
2019-02-26T08:40:36.712Z,1.94
2019-02-26T08:46:29.348Z,2.16
2019-02-26T08:49:22.554Z,2.39
2019-02-26T08:52:01.594Z,2.77
2019-02-26T08:58:12.510Z,3.05
2019-02-26T09:06:54.792Z,3.47
2019-02-26T09:12:29.689Z,3.95
2019-02-26T09:15:08.483Z,4.26
2019-02-26T09:17:41.449Z,4.36
2019-02-26T09:20:49.674Z,4.57
2019-02-26T09:23:39.365Z,4.59
2019-02-26T09:28:57.087Z,4.68
2019-02-26T09:31:52.168Z,4.80
2019-02-26T09:37:25.323Z,5.16
2019-02-26T09:39:59.321Z,5.44
2019-02-26T09:42:57.267Z,5.70
2019-02-26T09:48:35.802Z,5.96
2019-02-26T09:51:14.798Z,6.37
2019-02-26T09:57:00.354Z,7.32
2019-02-26T10:00:56.968Z,7.88
2019-02-26T10:03:23.267Z,8.40
2019-02-26T10:05:56.014Z,9.15
2019-02-26T10:09:04.088Z,9.58
2019-02-26T10:11:36.323Z,9.73
2019-02-26T10:14:18.751Z,10.02
2019-02-26T10:17:11.127Z,10.26
2019-02-26T10:19:46.811Z,10.50
2019-02-26T10:23:00.767Z,10.92
2019-02-26T10:26:13.423Z,10.99
2019-02-26T10:28:45.640Z,11.40
2019-02-26T10:34:30.376Z,11.86
2019-02-26T10:43:45.079Z,11.71
2019-02-26T10:49:12.383Z,11.92
2019-02-26T10:54:46.615Z,12.49
2019-02-26T10:57:56.001Z,12.52
2019-02-26T11:07:08.716Z,13.21
2019-02-26T11:10:03.713Z,13.00
2019-02-26T11:12:35.888Z,13.17
2019-02-26T11:21:31.911Z,12.76
2019-02-26T11:24:23.490Z,12.64
2019-02-26T11:39:09.980Z,12.88
2019-02-26T11:42:05.373Z,12.89
2019-02-26T11:45:14.824Z,13.09
2019-02-26T11:47:52.171Z,12.97
2019-02-26T11:53:09.336Z,13.24
2019-02-26T11:56:02.608Z,13.19
2019-02-26T11:58:33.502Z,12.86
2019-02-26T12:01:23.896Z,12.93
2019-02-26T12:03:56.080Z,13.03
2019-02-26T12:09:43.287Z,13.24
2019-02-26T12:12:34.171Z,13.24
2019-02-26T12:15:33.426Z,13.09
2019-02-26T12:18:22.772Z,13.00
2019-02-26T12:24:13.172Z,13.30
2019-02-26T12:26:45.264Z,13.31
2019-02-26T12:32:54.928Z,13.15
2019-02-26T12:35:52.270Z,12.98
2019-02-26T12:44:12.925Z,13.17
2019-02-26T12:46:47.812Z,13.07
2019-02-26T12:55:38.355Z,13.00
2019-02-26T13:00:57.169Z,13.06
2019-02-26T13:09:34.320Z,13.07
2019-02-26T13:12:20.260Z,12.91
2019-02-26T13:20:16.491Z,13.36
2019-02-26T13:22:50.096Z,13.44
2019-02-26T13:25:40.043Z,13.48
2019-02-26T13:28:12.349Z,13.63
2019-02-26T13:39:29.947Z,13.42
2019-02-26T13:42:38.288Z,13.49
2019-02-26T13:48:24.271Z,13.30
2019-02-26T13:50:57.967Z,13.08
2019-02-26T13:56:47.674Z,12.95
2019-02-26T13:59:39.098Z,12.89
2019-02-26T14:04:59.868Z,12.61
2019-02-26T14:07:42.671Z,12.47
2019-02-26T14:10:33.750Z,12.32
2019-02-26T14:16:15.193Z,12.16
2019-02-26T14:18:49.163Z,12.12
2019-02-26T14:21:31.191Z,12.13
2019-02-26T14:24:12.697Z,12.10
2019-02-26T14:29:44.397Z,11.96
2019-02-26T14:35:24.286Z,11.80
2019-02-26T14:40:39.929Z,11.60
2019-02-26T14:46:23.099Z,11.42
2019-02-26T14:49:00.688Z,11.30
2019-02-26T14:51:33.535Z,11.20
2019-02-26T14:54:08.573Z,11.12
2019-02-26T14:56:39.344Z,11.04
2019-02-26T14:59:24.723Z,10.98
2019-02-26T15:05:17.225Z,10.88
2019-02-26T15:07:47.877Z,10.84
2019-02-26T15:10:20.422Z,10.79
2019-02-26T15:13:32.699Z,10.72
2019-02-26T15:16:33.286Z,10.65
2019-02-26T15:19:05.686Z,10.60
2019-02-26T15:34:05.818Z,10.23
2019-02-26T15:36:45.399Z,10.11
2019-02-26T15:39:27.739Z,9.91
2019-02-26T15:45:25.087Z,9.56
2019-02-26T15:48:21.647Z,9.39
2019-02-26T15:51:14.313Z,9.23
2019-02-26T15:54:06.837Z,9.08
2019-02-26T15:56:39.894Z,9.00
2019-02-26T15:59:29.806Z,8.90
2019-02-26T16:02:00.458Z,8.80
2019-02-26T16:08:10.820Z,8.59
2019-02-26T16:10:43.338Z,8.42
2019-02-26T16:13:27.103Z,8.16
2019-02-26T16:15:57.811Z,8.01
2019-02-26T16:21:18.468Z,7.75
2019-02-26T16:28:03.247Z,7.48
2019-02-26T16:30:45.486Z,7.37
2019-02-26T16:39:25.502Z,7.07
2019-02-26T16:45:59.534Z,6.92
2019-02-26T16:48:53.171Z,6.89
2019-02-26T16:51:46.793Z,6.87
2019-02-26T16:57:56.513Z,6.87
2019-02-26T17:06:33.122Z,6.92
2019-02-26T17:09:11.359Z,6.93
2019-02-26T17:12:02.206Z,6.90
2019-02-26T17:15:13.933Z,6.97
2019-02-26T17:26:54.063Z,6.38
2019-02-26T17:29:27.907Z,6.25
2019-02-26T17:40:57.692Z,5.82
2019-02-26T17:43:48.041Z,5.88
2019-02-26T17:46:19.682Z,5.84
2019-02-26T17:49:06.251Z,5.82
2019-02-26T17:55:00.539Z,5.77
2019-02-26T17:57:51.919Z,5.80
2019-02-26T18:06:45.263Z,5.78
2019-02-26T18:09:54.063Z,5.81
2019-02-26T18:12:25.990Z,5.80
2019-02-26T18:18:43.528Z,5.74
2019-02-26T18:21:14.930Z,5.69
2019-02-26T18:24:06.186Z,5.65
2019-02-26T18:26:56.436Z,5.56
2019-02-26T18:35:06.074Z,5.18
2019-02-26T18:40:49.781Z,4.90
2019-02-26T18:43:33.938Z,4.81
2019-02-26T18:46:05.547Z,4.70
2019-02-26T18:48:59.053Z,4.58
2019-02-26T18:51:30.365Z,4.45
2019-02-26T19:00:58.343Z,4.29
2019-02-26T19:09:42.706Z,4.12
2019-02-26T19:12:19.202Z,4.02
2019-02-26T19:15:28.450Z,3.91
2019-02-26T19:18:38.557Z,3.81
2019-02-26T19:21:10.174Z,3.80
2019-02-26T19:23:52.556Z,3.69
2019-02-26T19:26:35.444Z,3.61
2019-02-26T19:29:10.081Z,3.51
2019-02-26T19:37:55.921Z,3.29
2019-02-26T19:40:38.758Z,3.24
2019-02-26T19:43:52.986Z,3.14
2019-02-26T19:46:27.134Z,3.13
2019-02-26T19:49:23.907Z,3.09
2019-02-26T19:55:15.752Z,2.93
2019-02-26T19:58:07.585Z,2.88
2019-02-26T20:01:17.407Z,2.83
2019-02-26T20:04:08.192Z,2.78
2019-02-26T20:12:48.491Z,2.72
2019-02-26T20:15:59.364Z,2.68
2019-02-26T20:30:55.822Z,2.36
2019-02-26T20:33:27.202Z,2.36
2019-02-26T20:35:58.610Z,2.41
2019-02-26T20:39:10.459Z,2.38
2019-02-26T20:41:43.407Z,2.32
2019-02-26T20:44:15.081Z,2.24
2019-02-26T20:47:10.540Z,2.22
2019-02-26T20:53:32.088Z,2.12
2019-02-26T20:56:03.426Z,2.08
2019-02-26T21:01:25.701Z,2.07
2019-02-26T21:07:18.610Z,1.96
2019-02-26T21:16:37.785Z,1.80
2019-02-26T21:19:09.386Z,1.80
2019-02-26T21:21:54.104Z,1.77
2019-02-26T21:27:47.611Z,1.67
2019-02-26T21:30:41.236Z,1.64
2019-02-26T21:48:53.101Z,1.47
2019-02-26T21:51:43.251Z,1.42
2019-02-26T21:54:14.562Z,1.42
2019-02-26T21:56:48.667Z,1.37
2019-02-26T22:02:25.779Z,1.29
2019-02-26T22:05:15.549Z,1.23
2019-02-26T22:07:46.472Z,1.25
2019-02-26T22:10:29.783Z,1.19
2019-02-26T22:13:13.295Z,1.20
2019-02-26T22:18:53.084Z,1.16
2019-02-26T22:21:55.067Z,1.12
2019-02-26T22:24:40.031Z,1.09
2019-02-26T22:27:10.041Z,1.10
2019-02-26T22:30:03.642Z,1.05
2019-02-26T22:35:59.028Z,0.98
2019-02-26T22:38:37.201Z,0.96
2019-02-26T22:44:15.469Z,0.96
2019-02-26T22:47:24.355Z,0.92
2019-02-26T22:50:28.062Z,0.92
2019-02-26T22:53:09.176Z,0.89
2019-02-26T22:55:49.793Z,0.86
2019-02-26T22:58:23.619Z,0.87
2019-02-26T23:01:18.974Z,0.84
2019-02-26T23:03:51.099Z,0.81
2019-02-26T23:12:20.864Z,0.73
2019-02-26T23:15:03.204Z,0.65
2019-02-26T23:17:46.671Z,0.65
2019-02-26T23:20:36.671Z,0.63
2019-02-26T23:26:41.759Z,0.57
2019-02-26T23:32:18.008Z,0.57
2019-02-26T23:41:13.336Z,0.50
2019-02-26T23:43:46.392Z,0.51
2019-02-26T23:46:36.303Z,0.53
2019-02-26T23:49:08.493Z,0.50
2019-02-26T23:51:57.910Z,0.49
2019-02-26T23:54:50.060Z,0.47
2019-02-26T23:57:42.206Z,0.39
